createdAt,value
2022-11-25T00:01:39.015Z,0.50
2022-11-25T00:04:05.380Z,0.50
2022-11-25T00:06:35.567Z,1.20
2022-11-25T00:09:10.547Z,0.70
2022-11-25T00:11:38.015Z,0.90
2022-11-25T00:14:05.018Z,0.50
2022-11-25T00:16:31.764Z,0.93
2022-11-25T00:18:58.416Z,0.50
2022-11-25T00:21:28.760Z,0.70
2022-11-25T00:23:59.549Z,0.82
2022-11-25T00:26:26.864Z,1.08
2022-11-25T00:28:53.651Z,1.15
2022-11-25T00:31:24.736Z,1.00
2022-11-25T00:33:51.398Z,1.30
2022-11-25T00:36:20.743Z,1.10
2022-11-25T00:38:47.790Z,0.80
2022-11-25T00:41:32.928Z,0.60
2022-11-25T00:44:17.966Z,0.52
2022-11-25T00:46:44.370Z,0.30
2022-11-25T00:49:10.846Z,0.40
2022-11-25T00:51:37.206Z,0.40
2022-11-25T00:54:03.624Z,0.50
2022-11-25T00:56:30.467Z,0.50
2022-11-25T00:58:57.138Z,1.00
2022-11-25T01:01:23.742Z,1.13
2022-11-25T01:03:50.870Z,1.20
2022-11-25T01:06:17.519Z,1.02
2022-11-25T01:08:43.886Z,1.30
2022-11-25T01:11:11.469Z,1.20
2022-11-25T01:13:37.862Z,0.90
2022-11-25T01:16:05.020Z,0.70
2022-11-25T01:18:31.817Z,0.50
2022-11-25T01:21:08.459Z,0.40
2022-11-25T01:23:35.493Z,0.40
2022-11-25T01:26:02.711Z,0.30
2022-11-25T01:28:29.333Z,0.40
2022-11-25T01:30:59.699Z,0.40
2022-11-25T01:33:26.325Z,0.40
2022-11-25T01:35:52.764Z,0.40
2022-11-25T01:38:19.059Z,0.50
2022-11-25T01:40:45.474Z,0.38
2022-11-25T01:43:14.649Z,0.40
2022-11-25T01:45:41.031Z,0.60
2022-11-25T01:48:26.176Z,0.73
2022-11-25T01:50:52.786Z,1.10
2022-11-25T01:53:20.663Z,0.90
2022-11-25T01:55:49.134Z,0.90
2022-11-25T01:58:21.303Z,1.00
2022-11-25T02:00:51.332Z,1.05
2022-11-25T02:03:39.968Z,0.88
2022-11-25T02:06:10.956Z,0.57
2022-11-25T02:08:37.425Z,0.90
2022-11-25T02:11:04.718Z,1.00
2022-11-25T02:13:32.082Z,0.60
2022-11-25T02:15:58.615Z,0.70
2022-11-25T02:18:25.874Z,0.90
2022-11-25T02:20:52.494Z,1.20
2022-11-25T02:23:35.840Z,1.00
2022-11-25T02:26:02.855Z,0.93
2022-11-25T02:28:30.755Z,0.93
2022-11-25T02:30:57.467Z,1.13
2022-11-25T02:33:24.119Z,1.35
2022-11-25T02:35:54.731Z,2.05
2022-11-25T02:38:23.523Z,1.80
2022-11-25T02:40:52.541Z,2.08
2022-11-25T02:43:19.236Z,1.40
2022-11-25T02:45:55.273Z,1.50
2022-11-25T02:48:34.525Z,1.40
2022-11-25T02:51:09.520Z,1.30
2022-11-25T02:53:35.890Z,1.10
2022-11-25T02:56:02.280Z,1.92
2022-11-25T02:58:28.955Z,1.85
2022-11-25T03:00:55.544Z,2.75
2022-11-25T03:03:22.044Z,1.40
2022-11-25T03:05:48.423Z,1.17
2022-11-25T03:08:14.898Z,0.82
2022-11-25T03:10:41.283Z,0.70
2022-11-25T03:13:09.138Z,0.40
2022-11-25T03:15:36.188Z,0.40
2022-11-25T03:18:02.982Z,0.40
2022-11-25T03:20:29.444Z,0.30
2022-11-25T03:22:55.800Z,0.22
2022-11-25T03:25:22.102Z,0.50
2022-11-25T03:27:48.763Z,0.70
2022-11-25T03:30:16.921Z,0.50
2022-11-25T03:32:43.379Z,0.30
2022-11-25T03:35:10.118Z,0.40
2022-11-25T03:37:36.492Z,0.50
2022-11-25T03:40:03.856Z,0.50
2022-11-25T03:42:30.520Z,0.50
2022-11-25T03:44:56.851Z,0.50
2022-11-25T03:47:23.177Z,0.50
2022-11-25T03:49:49.546Z,0.50
2022-11-25T03:52:15.948Z,0.60
2022-11-25T03:54:42.258Z,0.70
2022-11-25T03:57:08.652Z,0.80
2022-11-25T03:59:34.927Z,0.80
2022-11-25T04:02:01.369Z,0.57
2022-11-25T04:04:27.984Z,0.50
2022-11-25T04:06:54.320Z,0.60
2022-11-25T04:09:20.707Z,0.40
2022-11-25T04:12:05.596Z,0.30
2022-11-25T04:14:31.933Z,0.30
2022-11-25T04:16:58.566Z,0.40
2022-11-25T04:19:25.127Z,0.40
2022-11-25T04:21:52.545Z,0.20
2022-11-25T04:24:19.749Z,0.30
2022-11-25T04:26:46.228Z,0.40
2022-11-25T04:29:12.737Z,0.88
2022-11-25T04:31:39.147Z,1.58
2022-11-25T04:34:05.545Z,1.80
2022-11-25T04:36:31.999Z,2.00
2022-11-25T04:38:58.370Z,1.80
2022-11-25T04:41:24.840Z,1.90
2022-11-25T04:43:51.131Z,1.40
2022-11-25T04:46:18.819Z,1.20
2022-11-25T04:48:45.315Z,1.33
2022-11-25T04:51:11.643Z,0.80
2022-11-25T04:53:37.994Z,0.70
2022-11-25T04:56:04.612Z,0.95
2022-11-25T04:58:49.647Z,1.35
2022-11-25T05:01:16.288Z,1.05
2022-11-25T05:03:47.687Z,1.33
2022-11-25T05:06:16.067Z,1.73
2022-11-25T05:08:42.392Z,1.30
2022-11-25T05:11:08.728Z,1.00
2022-11-25T05:13:35.075Z,0.60
2022-11-25T05:16:01.459Z,0.88
2022-11-25T05:18:27.802Z,0.70
2022-11-25T05:20:54.188Z,0.70
2022-11-25T05:23:20.708Z,1.30
2022-11-25T05:25:47.096Z,2.17
2022-11-25T05:28:13.473Z,1.80
2022-11-25T05:30:39.871Z,1.55
2022-11-25T05:33:06.227Z,1.70
2022-11-25T05:35:32.519Z,2.30
2022-11-25T05:38:01.120Z,1.38
2022-11-25T05:40:27.476Z,1.85
2022-11-25T05:42:53.816Z,2.03
2022-11-25T05:45:20.279Z,2.00
2022-11-25T05:47:46.610Z,2.00
2022-11-25T05:50:12.939Z,1.70
2022-11-25T05:52:39.363Z,1.60
2022-11-25T05:55:05.882Z,1.35
2022-11-25T05:57:32.299Z,1.05
2022-11-25T05:59:58.702Z,1.60
2022-11-25T06:02:25.111Z,1.52
2022-11-25T06:04:51.509Z,1.65
2022-11-25T06:07:18.098Z,1.45
2022-11-25T06:09:44.496Z,1.40
2022-11-25T06:12:10.792Z,1.67
2022-11-25T06:14:37.393Z,1.70
2022-11-25T06:17:04.448Z,2.00
2022-11-25T06:19:30.908Z,1.30
2022-11-25T06:21:57.390Z,1.17
2022-11-25T06:24:23.828Z,1.10
2022-11-25T06:26:50.128Z,1.05
2022-11-25T06:29:16.701Z,1.05
2022-11-25T06:31:43.724Z,1.45
2022-11-25T06:34:10.377Z,1.25
2022-11-25T06:36:36.900Z,1.13
2022-11-25T06:39:03.315Z,1.17
2022-11-25T06:41:29.812Z,2.42
2022-11-25T06:43:57.178Z,1.30
2022-11-25T06:46:25.422Z,1.60
2022-11-25T06:48:53.120Z,0.70
2022-11-25T06:51:19.791Z,0.70
2022-11-25T06:53:46.624Z,0.57
2022-11-25T06:56:13.047Z,0.40
2022-11-25T06:58:40.052Z,0.43
2022-11-25T07:01:08.101Z,0.30
2022-11-25T07:03:34.921Z,0.40
2022-11-25T07:06:02.933Z,0.80
2022-11-25T07:08:33.901Z,1.88
2022-11-25T07:11:05.257Z,1.90
2022-11-25T07:13:32.021Z,1.85
2022-11-25T07:16:02.953Z,1.45
2022-11-25T07:18:30.443Z,1.23
2022-11-25T07:21:01.138Z,0.93
2022-11-25T07:23:27.812Z,1.17
2022-11-25T07:25:54.224Z,1.08
2022-11-25T07:28:20.519Z,1.10
2022-11-25T07:33:33.452Z,1.10
2022-11-25T07:36:10.154Z,1.02
2022-11-25T07:38:36.641Z,0.98
2022-11-25T07:41:07.376Z,1.15
2022-11-25T07:43:36.852Z,1.23
2022-11-25T07:46:27.555Z,0.80
2022-11-25T07:48:58.983Z,0.90
2022-11-25T07:51:41.871Z,0.95
2022-11-25T07:54:10.585Z,0.60
2022-11-25T07:56:37.734Z,0.80
2022-11-25T07:59:04.834Z,0.80
2022-11-25T08:01:31.484Z,0.80
2022-11-25T08:03:57.987Z,0.73
2022-11-25T08:06:25.917Z,0.95
2022-11-25T08:08:54.684Z,1.40
2022-11-25T08:11:26.055Z,1.33
2022-11-25T08:13:52.470Z,1.65
2022-11-25T08:16:19.923Z,1.00
2022-11-25T08:18:47.017Z,1.48
2022-11-25T08:21:14.087Z,0.90
2022-11-25T08:23:41.380Z,0.68
2022-11-25T08:26:09.030Z,0.80
2022-11-25T08:28:36.191Z,1.20
2022-11-25T08:31:03.700Z,0.70
2022-11-25T08:33:30.215Z,0.60
2022-11-25T08:35:56.960Z,2.20
2022-11-25T08:38:23.275Z,1.60
2022-11-25T08:40:49.942Z,1.33
2022-11-25T08:43:16.411Z,1.00
2022-11-25T08:45:42.767Z,1.20
2022-11-25T08:48:09.448Z,1.00
2022-11-25T08:50:35.932Z,1.58
2022-11-25T08:53:02.510Z,1.38
2022-11-25T08:55:29.170Z,1.70
2022-11-25T08:57:55.569Z,1.17
2022-11-25T09:00:22.463Z,1.10
2022-11-25T09:02:49.150Z,1.42
2022-11-25T09:05:16.336Z,1.10
2022-11-25T09:07:43.367Z,0.93
2022-11-25T09:10:10.759Z,1.30
2022-11-25T09:12:37.112Z,0.90
2022-11-25T09:15:03.641Z,0.98
2022-11-25T09:17:30.192Z,2.22
2022-11-25T09:19:56.637Z,1.50
2022-11-25T09:22:23.145Z,1.60
2022-11-25T09:24:49.665Z,2.78
2022-11-25T09:27:15.963Z,2.88
2022-11-25T09:29:42.337Z,2.28
2022-11-25T09:32:08.810Z,2.30
2022-11-25T09:34:35.546Z,2.40
2022-11-25T09:37:02.070Z,2.50
2022-11-25T09:39:29.975Z,2.38
2022-11-25T09:42:50.536Z,2.20
2022-11-25T09:45:35.507Z,2.70
2022-11-25T09:48:10.625Z,1.90
2022-11-25T09:50:48.774Z,2.10
2022-11-25T09:53:36.296Z,1.60
2022-11-25T09:56:03.807Z,1.45
2022-11-25T09:58:33.570Z,2.13
2022-11-25T10:01:00.376Z,1.88
2022-11-25T10:03:37.944Z,1.38
2022-11-25T10:06:06.923Z,1.80
2022-11-25T10:08:41.848Z,1.50
2022-11-25T10:11:08.183Z,1.83
2022-11-25T10:13:41.951Z,2.92
2022-11-25T10:16:15.076Z,2.50
2022-11-25T10:18:44.313Z,2.10
2022-11-25T10:21:11.592Z,2.03
2022-11-25T10:23:39.481Z,1.52
2022-11-25T10:26:16.960Z,1.80
2022-11-25T10:28:53.355Z,1.83
2022-11-25T10:31:21.822Z,1.55
2022-11-25T10:33:49.754Z,1.65
2022-11-25T10:36:36.254Z,1.95
2022-11-25T10:39:11.123Z,1.58
2022-11-25T10:41:43.545Z,1.23
2022-11-25T10:44:23.466Z,0.95
2022-11-25T10:47:16.326Z,0.98
2022-11-25T10:50:01.418Z,0.90
2022-11-25T10:52:33.177Z,0.80
2022-11-25T10:55:08.928Z,1.25
2022-11-25T10:57:35.337Z,1.00
2022-11-25T11:00:03.982Z,1.10
2022-11-25T11:02:37.387Z,1.08
2022-11-25T11:05:03.824Z,1.20
2022-11-25T11:07:35.444Z,0.93
2022-11-25T11:10:20.505Z,1.50
2022-11-25T11:12:54.952Z,0.88
2022-11-25T11:15:26.492Z,1.05
2022-11-25T11:17:54.091Z,0.80
2022-11-25T11:20:25.505Z,1.10
2022-11-25T11:22:55.307Z,1.20
2022-11-25T11:25:21.638Z,1.35
2022-11-25T11:27:48.182Z,1.50
2022-11-25T11:30:15.890Z,1.58
2022-11-25T11:32:44.359Z,1.77
2022-11-25T11:35:19.917Z,1.17
2022-11-25T11:37:48.054Z,1.55
2022-11-25T11:40:17.339Z,1.52
2022-11-25T11:42:52.620Z,1.30
2022-11-25T11:45:25.211Z,1.77
2022-11-25T11:48:10.334Z,1.23
2022-11-25T11:50:41.222Z,0.90
2022-11-25T11:53:20.862Z,1.10
2022-11-25T11:56:33.758Z,1.40
2022-11-25T11:59:08.819Z,1.50
2022-11-25T12:01:41.211Z,1.02
2022-11-25T12:04:22.827Z,1.25
2022-11-25T12:06:58.330Z,1.20
2022-11-25T12:09:25.859Z,1.63
2022-11-25T12:11:54.305Z,1.10
2022-11-25T12:14:26.493Z,1.10
2022-11-25T12:16:55.846Z,1.60
2022-11-25T12:19:27.062Z,1.50
2022-11-25T12:22:00.688Z,1.40
2022-11-25T12:24:31.256Z,1.48
2022-11-25T12:27:03.502Z,1.27
2022-11-25T12:29:32.877Z,1.40
2022-11-25T12:32:14.561Z,1.70
2022-11-25T12:35:01.212Z,1.75
2022-11-25T12:37:32.201Z,1.15
2022-11-25T12:40:21.950Z,1.20
2022-11-25T12:42:48.968Z,0.90
2022-11-25T12:45:18.625Z,0.77
2022-11-25T12:47:45.187Z,1.00
2022-11-25T12:50:16.743Z,1.17
2022-11-25T12:52:46.099Z,0.70
2022-11-25T12:55:14.735Z,0.77
2022-11-25T12:57:50.500Z,0.70
2022-11-25T13:03:26.420Z,1.10
2022-11-25T13:06:05.921Z,1.60
2022-11-25T13:08:51.375Z,1.10
2022-11-25T13:11:34.482Z,1.02
2022-11-25T13:14:13.683Z,0.75
2022-11-25T13:16:41.354Z,1.25
2022-11-25T13:19:14.612Z,1.33
2022-11-25T13:22:04.332Z,0.90
2022-11-25T13:24:35.215Z,1.88
2022-11-25T13:27:01.944Z,1.40
2022-11-25T13:29:28.396Z,1.10
2022-11-25T13:32:02.649Z,1.10
2022-11-25T13:34:36.171Z,0.90
2022-11-25T13:37:22.851Z,1.02
2022-11-25T13:39:49.287Z,1.10
2022-11-25T13:42:24.601Z,1.13
2022-11-25T13:45:00.371Z,1.10
2022-11-25T13:47:29.591Z,1.10
2022-11-25T13:49:57.739Z,1.13
2022-11-25T13:52:31.277Z,0.98
2022-11-25T13:54:57.808Z,0.70
2022-11-25T13:57:28.626Z,1.10
2022-11-25T14:00:18.466Z,1.55
2022-11-25T14:02:45.778Z,1.67
2022-11-25T14:05:30.979Z,1.40
2022-11-25T14:08:16.226Z,1.70
2022-11-25T14:10:57.552Z,1.45
2022-11-25T14:13:27.624Z,1.20
2022-11-25T14:16:02.339Z,0.90
2022-11-25T14:19:22.188Z,1.23
2022-11-25T14:21:39.576Z,1.05
2022-11-25T14:24:12.259Z,1.00
2022-11-25T14:26:55.917Z,1.20
2022-11-25T14:29:45.502Z,1.70
2022-11-25T14:32:18.462Z,1.23
2022-11-25T14:35:02.142Z,0.85
2022-11-25T14:37:44.259Z,1.08
2022-11-25T14:42:38.830Z,0.90
2022-11-25T14:45:19.419Z,0.70
2022-11-25T14:47:45.869Z,0.93
2022-11-25T14:53:05.285Z,1.27
2022-11-25T14:55:31.841Z,1.60
2022-11-25T14:57:58.296Z,1.55
2022-11-25T15:00:25.005Z,1.30
2022-11-25T15:02:53.065Z,2.20
2022-11-25T15:05:20.671Z,2.15
2022-11-25T15:08:01.431Z,2.15
2022-11-25T15:10:40.257Z,1.40
2022-11-25T15:13:13.468Z,1.83
2022-11-25T15:15:39.947Z,4.32
2022-11-25T15:18:06.795Z,4.55
2022-11-25T15:20:35.201Z,3.45
2022-11-25T15:23:01.612Z,3.58
2022-11-25T15:25:27.895Z,2.58
2022-11-25T15:27:54.299Z,1.95
2022-11-25T15:30:21.339Z,1.77
2022-11-25T15:32:47.873Z,2.00
2022-11-25T15:35:19.139Z,2.03
2022-11-25T15:37:45.491Z,2.42
2022-11-25T15:40:30.502Z,2.40
2022-11-25T15:43:00.749Z,1.85
2022-11-25T15:45:29.825Z,2.10
2022-11-25T15:47:57.171Z,2.20
2022-11-25T15:50:25.721Z,2.63
2022-11-25T15:52:56.506Z,2.33
2022-11-25T15:55:31.873Z,3.72
2022-11-25T15:58:00.237Z,2.75
2022-11-25T16:00:26.763Z,2.10
2022-11-25T16:02:54.591Z,3.25
2022-11-25T16:05:28.600Z,2.20
2022-11-25T16:07:55.010Z,2.30
2022-11-25T16:10:32.593Z,2.70
2022-11-25T16:13:21.436Z,1.98
2022-11-25T16:15:48.333Z,1.90
2022-11-25T16:18:39.115Z,1.40
2022-11-25T16:21:08.108Z,1.35
2022-11-25T16:26:03.825Z,1.50
2022-11-25T16:28:30.713Z,1.48
2022-11-25T16:30:59.449Z,1.80
2022-11-25T16:33:25.895Z,1.98
2022-11-25T16:35:52.355Z,1.95
2022-11-25T16:38:18.887Z,2.60
2022-11-25T16:40:46.047Z,1.67
2022-11-25T16:43:32.661Z,1.90
2022-11-25T16:45:59.045Z,1.70
2022-11-25T16:48:25.382Z,2.90
2022-11-25T16:50:51.899Z,1.90
2022-11-25T16:53:19.056Z,1.83
2022-11-25T16:55:46.363Z,1.75
2022-11-25T16:58:20.379Z,1.77
2022-11-25T17:00:52.407Z,2.13
2022-11-25T17:05:46.441Z,1.83
2022-11-25T17:08:14.616Z,1.90
2022-11-25T17:10:42.482Z,2.00
2022-11-25T17:13:14.930Z,2.03
2022-11-25T17:15:41.472Z,2.90
2022-11-25T17:18:08.183Z,2.42
2022-11-25T17:20:34.993Z,2.40
2022-11-25T17:23:02.295Z,1.83
2022-11-25T17:25:35.295Z,1.70
2022-11-25T17:28:03.378Z,1.65
2022-11-25T17:30:30.112Z,1.20
2022-11-25T17:33:04.318Z,2.55
2022-11-25T17:35:30.739Z,2.13
2022-11-25T17:37:58.270Z,2.53
2022-11-25T17:40:24.723Z,2.10
2022-11-25T17:42:51.281Z,2.08
2022-11-25T17:45:19.636Z,1.60
2022-11-25T17:47:46.431Z,1.50
2022-11-25T17:50:22.692Z,1.10
2022-11-25T17:52:49.634Z,1.10
2022-11-25T17:55:19.569Z,1.17
2022-11-25T17:57:46.731Z,0.80
2022-11-25T18:00:14.667Z,1.95
2022-11-25T18:02:41.068Z,1.20
2022-11-25T18:05:15.403Z,1.58
2022-11-25T18:07:43.091Z,1.20
2022-11-25T18:10:10.484Z,1.48
2022-11-25T18:12:37.428Z,1.38
2022-11-25T18:15:08.173Z,1.35
2022-11-25T18:17:36.010Z,1.30
2022-11-25T18:20:14.004Z,1.70
2022-11-25T18:22:40.464Z,1.20
2022-11-25T18:25:09.506Z,1.13
2022-11-25T18:27:36.370Z,1.50
2022-11-25T18:30:03.357Z,1.80
2022-11-25T18:32:30.424Z,1.75
2022-11-25T18:34:57.417Z,1.10
2022-11-25T18:37:23.945Z,1.25
2022-11-25T18:39:50.495Z,1.85
2022-11-25T18:42:27.182Z,1.60
2022-11-25T18:44:54.536Z,2.10
2022-11-25T18:47:20.930Z,1.70
2022-11-25T18:49:52.317Z,1.70
2022-11-25T18:52:21.673Z,1.42
2022-11-25T18:54:49.469Z,1.80
2022-11-25T18:57:15.941Z,1.40
2022-11-25T18:59:42.990Z,1.52
2022-11-25T19:02:15.501Z,1.73
2022-11-25T19:04:41.852Z,1.63
2022-11-25T19:07:08.311Z,1.10
2022-11-25T19:09:34.854Z,1.17
2022-11-25T19:12:01.504Z,1.75
2022-11-25T19:14:30.353Z,1.40
2022-11-25T19:16:59.091Z,1.30
2022-11-25T19:19:25.538Z,1.30
2022-11-25T19:21:51.961Z,1.60
2022-11-25T19:24:18.382Z,1.20
2022-11-25T19:26:48.924Z,1.42
2022-11-25T19:29:19.625Z,1.23
2022-11-25T19:31:47.105Z,1.00
2022-11-25T19:34:21.302Z,0.82
2022-11-25T19:36:47.594Z,1.13
2022-11-25T19:39:16.340Z,1.40
2022-11-25T19:41:42.820Z,1.20
2022-11-25T19:44:09.181Z,1.50
2022-11-25T19:46:52.440Z,1.48
2022-11-25T19:49:23.519Z,1.20
2022-11-25T19:51:49.896Z,1.48
2022-11-25T19:54:17.226Z,1.40
2022-11-25T19:56:44.791Z,1.75
2022-11-25T19:59:11.152Z,1.40
2022-11-25T20:01:38.960Z,2.38
2022-11-25T20:04:05.877Z,1.70
2022-11-25T20:06:32.520Z,1.88
2022-11-25T20:09:05.525Z,1.33
2022-11-25T20:11:36.721Z,1.38
2022-11-25T20:14:03.790Z,0.90
2022-11-25T20:16:34.296Z,1.00
2022-11-25T20:19:00.769Z,1.63
2022-11-25T20:21:29.831Z,1.75
2022-11-25T20:23:56.350Z,1.77
2022-11-25T20:26:36.630Z,1.45
2022-11-25T20:29:07.151Z,1.38
2022-11-25T20:31:33.586Z,1.40
2022-11-25T20:34:00.479Z,2.10
2022-11-25T20:36:31.142Z,1.60
2022-11-25T20:38:59.785Z,1.50
2022-11-25T20:41:28.136Z,2.53
2022-11-25T20:43:55.001Z,1.50
2022-11-25T20:46:27.010Z,1.23
2022-11-25T20:51:20.659Z,1.08
2022-11-25T20:53:51.976Z,1.05
2022-11-25T20:56:19.513Z,0.93
2022-11-25T20:58:46.564Z,1.00
2022-11-25T21:01:14.413Z,1.15
2022-11-25T21:03:44.600Z,0.80
2022-11-25T21:06:30.091Z,0.93
2022-11-25T21:08:58.479Z,1.38
2022-11-25T21:11:25.247Z,1.15
2022-11-25T21:13:52.049Z,1.15
2022-11-25T21:16:18.583Z,1.10
2022-11-25T21:18:45.004Z,1.00
2022-11-25T21:21:14.445Z,1.10
2022-11-25T21:23:41.052Z,1.10
2022-11-25T21:26:11.380Z,1.00
2022-11-25T21:28:40.350Z,0.95
2022-11-25T21:31:11.130Z,1.10
2022-11-25T21:33:37.648Z,1.40
2022-11-25T21:36:04.063Z,1.50
2022-11-25T21:38:30.449Z,1.30
2022-11-25T21:40:58.192Z,1.38
2022-11-25T21:43:29.341Z,1.00
2022-11-25T21:46:03.860Z,0.90
2022-11-25T21:48:31.013Z,0.90
2022-11-25T21:50:57.496Z,0.85
2022-11-25T21:53:24.122Z,0.95
2022-11-25T21:55:50.571Z,0.90
2022-11-25T21:58:18.778Z,0.98
2022-11-25T22:00:48.356Z,0.90
2022-11-25T22:03:15.942Z,0.70
2022-11-25T22:05:42.627Z,1.00
2022-11-25T22:08:09.141Z,1.25
2022-11-25T22:10:36.220Z,1.00
2022-11-25T22:13:03.935Z,0.80
2022-11-25T22:15:30.713Z,1.45
2022-11-25T22:17:57.595Z,1.13
2022-11-25T22:20:25.832Z,1.40
2022-11-25T22:22:52.272Z,1.40
2022-11-25T22:25:18.628Z,1.90
2022-11-25T22:27:45.180Z,1.77
2022-11-25T22:30:15.922Z,2.22
2022-11-25T22:32:42.360Z,1.63
2022-11-25T22:35:16.224Z,1.20
2022-11-25T22:37:43.114Z,0.90
2022-11-25T22:40:09.795Z,1.50
2022-11-25T22:42:36.256Z,2.03
2022-11-25T22:45:04.209Z,2.13
2022-11-25T22:47:35.969Z,1.80
2022-11-25T22:50:03.614Z,1.50
2022-11-25T22:52:34.516Z,1.23
2022-11-25T22:55:16.527Z,1.75
2022-11-25T22:57:42.895Z,2.35
2022-11-25T23:00:11.549Z,1.52
2022-11-25T23:02:38.162Z,1.70
2022-11-25T23:05:13.052Z,1.30
2022-11-25T23:07:39.585Z,1.58
2022-11-25T23:10:13.318Z,1.20
2022-11-25T23:12:39.619Z,1.35
2022-11-25T23:15:06.249Z,2.75
2022-11-25T23:17:32.543Z,1.23
2022-11-25T23:19:58.894Z,1.33
2022-11-25T23:22:25.280Z,1.80
2022-11-25T23:24:51.615Z,1.80
2022-11-25T23:27:17.962Z,1.17
2022-11-25T23:29:45.192Z,1.75
2022-11-25T23:32:17.487Z,1.38
2022-11-25T23:34:44.121Z,1.50
2022-11-25T23:37:12.828Z,1.30
2022-11-25T23:39:39.510Z,1.13
2022-11-25T23:42:17.047Z,1.10
2022-11-25T23:44:43.502Z,1.30
2022-11-25T23:47:14.384Z,2.13
2022-11-25T23:49:45.778Z,1.00
2022-11-25T23:52:13.758Z,1.10
2022-11-25T23:54:42.532Z,1.00
2022-11-25T23:57:19.496Z,0.70
2022-11-25T23:59:46.444Z,0.50
